createdAt,value
2023-04-16T00:01:45.731Z,89.05
2023-04-16T00:04:12.582Z,88.88
2023-04-16T00:06:39.286Z,88.87
2023-04-16T00:09:05.930Z,88.87
2023-04-16T00:11:32.553Z,88.75
2023-04-16T00:13:59.244Z,89.25
2023-04-16T00:16:25.963Z,89.55
2023-04-16T00:18:52.665Z,89.16
2023-04-16T00:21:19.239Z,88.90
2023-04-16T00:23:46.455Z,89.21
2023-04-16T00:26:13.072Z,89.64
2023-04-16T00:28:42.133Z,89.35
2023-04-16T00:31:08.905Z,89.08
2023-04-16T00:33:35.620Z,89.55
2023-04-16T00:36:02.198Z,89.44
2023-04-16T00:38:30.439Z,89.61
2023-04-16T00:40:59.858Z,89.76
2023-04-16T00:43:27.329Z,89.61
2023-04-16T00:45:56.642Z,89.26
2023-04-16T00:48:23.612Z,88.90
2023-04-16T00:50:50.656Z,88.69
2023-04-16T00:53:17.476Z,88.54
2023-04-16T00:55:44.551Z,88.79
2023-04-16T00:58:11.214Z,88.65
2023-04-16T01:00:37.863Z,88.56
2023-04-16T01:03:05.350Z,88.46
2023-04-16T01:05:32.052Z,88.25
2023-04-16T01:08:00.848Z,88.37
2023-04-16T01:10:27.500Z,88.67
2023-04-16T01:12:54.364Z,88.48
2023-04-16T01:15:21.023Z,88.40
2023-04-16T01:17:47.769Z,87.24
2023-04-16T01:20:14.612Z,87.41
2023-04-16T01:22:41.229Z,87.45
2023-04-16T01:25:07.949Z,87.96
2023-04-16T01:27:34.563Z,87.96
2023-04-16T01:30:01.137Z,87.76
2023-04-16T01:32:39.365Z,87.33
2023-04-16T01:35:06.161Z,87.16
2023-04-16T01:37:32.951Z,87.39
2023-04-16T01:39:59.596Z,87.65
2023-04-16T01:42:26.172Z,87.87
2023-04-16T01:44:52.797Z,88.36
2023-04-16T01:47:19.507Z,88.18
2023-04-16T01:49:48.171Z,88.89
2023-04-16T01:52:14.794Z,88.88
2023-04-16T01:54:41.367Z,88.99
2023-04-16T01:57:08.110Z,88.12
2023-04-16T01:59:34.665Z,88.08
2023-04-16T02:02:11.167Z,88.00
2023-04-16T02:04:40.101Z,88.32
2023-04-16T02:07:07.559Z,88.65
2023-04-16T02:09:35.870Z,89.10
2023-04-16T02:12:05.999Z,88.76
2023-04-16T02:14:33.485Z,88.49
2023-04-16T02:17:00.840Z,88.94
2023-04-16T02:19:56.682Z,89.31
2023-04-16T02:22:23.622Z,89.62
2023-04-16T02:24:51.941Z,89.48
2023-04-16T02:27:18.617Z,89.95
2023-04-16T02:29:45.964Z,90.06
2023-04-16T02:32:16.530Z,90.00
2023-04-16T02:34:45.245Z,89.51
2023-04-16T02:37:14.416Z,89.27
2023-04-16T02:39:41.310Z,89.22
2023-04-16T02:42:07.906Z,89.04
2023-04-16T02:44:35.110Z,89.53
2023-04-16T02:47:01.703Z,89.36
2023-04-16T02:49:28.580Z,89.28
2023-04-16T02:51:55.208Z,89.16
2023-04-16T02:54:21.836Z,89.17
2023-04-16T02:56:48.426Z,88.99
2023-04-16T02:59:15.320Z,88.87
2023-04-16T03:01:42.022Z,89.22
2023-04-16T03:04:09.177Z,88.95
2023-04-16T03:06:35.996Z,89.05
2023-04-16T03:09:02.580Z,88.97
2023-04-16T03:11:29.182Z,88.61
2023-04-16T03:13:56.621Z,88.96
2023-04-16T03:16:23.413Z,88.99
2023-04-16T03:18:50.254Z,88.84
2023-04-16T03:21:17.104Z,88.76
2023-04-16T03:23:43.747Z,88.75
2023-04-16T03:26:10.355Z,88.99
2023-04-16T03:28:36.957Z,89.07
2023-04-16T03:31:03.732Z,89.04
2023-04-16T03:33:30.712Z,88.75
2023-04-16T03:35:58.224Z,88.98
2023-04-16T03:38:26.908Z,88.82
2023-04-16T03:40:56.155Z,89.08
2023-04-16T03:43:22.824Z,89.12
2023-04-16T03:45:49.701Z,89.24
2023-04-16T03:48:18.633Z,89.03
2023-04-16T03:50:47.467Z,88.82
2023-04-16T03:53:16.110Z,88.71
2023-04-16T03:55:43.253Z,88.57
2023-04-16T03:58:10.611Z,88.52
2023-04-16T04:00:37.232Z,88.64
2023-04-16T04:03:11.074Z,88.39
2023-04-16T04:05:41.766Z,88.38
2023-04-16T04:08:11.170Z,88.79
2023-04-16T04:10:38.296Z,89.03
2023-04-16T04:13:07.167Z,89.73
2023-04-16T04:15:34.679Z,89.32
2023-04-16T04:18:01.390Z,89.60
2023-04-16T04:20:28.191Z,90.25
2023-04-16T04:22:54.852Z,90.10
2023-04-16T04:25:24.757Z,90.26
2023-04-16T04:27:51.413Z,90.20
2023-04-16T04:30:18.027Z,90.28
2023-04-16T04:32:44.702Z,90.50
2023-04-16T04:35:11.606Z,90.79
2023-04-16T04:37:38.248Z,90.88
2023-04-16T04:40:12.723Z,91.05
2023-04-16T04:42:39.323Z,90.83
2023-04-16T04:45:06.582Z,90.57
2023-04-16T04:47:34.188Z,90.87
2023-04-16T04:50:01.040Z,90.80
2023-04-16T04:52:28.277Z,90.46
2023-04-16T04:54:55.013Z,90.54
2023-04-16T04:57:21.596Z,90.59
2023-04-16T04:59:51.167Z,90.26
2023-04-16T05:02:18.127Z,90.56
2023-04-16T05:04:44.879Z,90.00
2023-04-16T05:07:11.571Z,90.36
2023-04-16T05:09:38.258Z,89.93
2023-04-16T05:12:05.090Z,89.95
2023-04-16T05:14:31.659Z,90.04
2023-04-16T05:16:58.300Z,90.09
2023-04-16T05:19:25.013Z,89.65
2023-04-16T05:21:51.644Z,90.09
2023-04-16T05:24:18.379Z,90.00
2023-04-16T05:26:44.928Z,90.21
2023-04-16T05:29:11.600Z,89.49
2023-04-16T05:31:38.508Z,89.74
2023-04-16T05:34:05.304Z,89.88
2023-04-16T05:36:31.967Z,89.97
2023-04-16T05:38:58.510Z,89.74
2023-04-16T05:41:25.532Z,89.74
2023-04-16T05:43:52.122Z,89.81
2023-04-16T05:46:18.761Z,89.71
2023-04-16T05:48:45.374Z,89.49
2023-04-16T05:51:11.997Z,89.49
2023-04-16T05:53:38.593Z,89.76
2023-04-16T05:56:05.809Z,89.79
2023-04-16T05:58:32.381Z,89.70
2023-04-16T06:00:59.237Z,89.44
2023-04-16T06:03:25.856Z,88.82
2023-04-16T06:05:52.684Z,88.92
2023-04-16T06:08:19.453Z,88.30
2023-04-16T06:10:47.154Z,88.36
2023-04-16T06:13:13.904Z,88.74
2023-04-16T06:15:40.618Z,88.36
2023-04-16T06:18:07.245Z,88.26
2023-04-16T06:20:33.924Z,88.14
2023-04-16T06:23:00.673Z,88.14
2023-04-16T06:25:27.296Z,88.43
2023-04-16T06:27:53.840Z,88.94
2023-04-16T06:30:20.576Z,88.44
2023-04-16T06:32:48.009Z,87.06
2023-04-16T06:35:14.779Z,87.00
2023-04-16T06:37:41.556Z,86.95
2023-04-16T06:40:08.648Z,86.72
2023-04-16T06:42:35.349Z,85.68
2023-04-16T06:45:02.007Z,84.36
2023-04-16T06:47:28.703Z,83.55
2023-04-16T06:49:56.408Z,83.81
2023-04-16T06:52:23.023Z,83.40
2023-04-16T06:54:49.797Z,82.92
2023-04-16T06:57:16.448Z,82.90
2023-04-16T06:59:43.110Z,82.79
2023-04-16T07:02:10.651Z,82.12
2023-04-16T07:04:37.393Z,82.39
2023-04-16T07:07:04.087Z,82.75
2023-04-16T07:09:30.857Z,82.88
2023-04-16T07:11:57.492Z,83.13
2023-04-16T07:14:24.165Z,83.20
2023-04-16T07:16:50.748Z,81.79
2023-04-16T07:19:17.478Z,81.90
2023-04-16T07:21:44.519Z,82.12
2023-04-16T07:24:14.380Z,81.55
2023-04-16T07:26:40.989Z,81.28
2023-04-16T07:29:07.715Z,81.52
2023-04-16T07:31:34.487Z,81.59
2023-04-16T07:34:01.141Z,80.82
2023-04-16T07:36:28.401Z,81.37
2023-04-16T07:38:56.224Z,80.97
2023-04-16T07:41:23.051Z,79.22
2023-04-16T07:43:49.658Z,78.98
2023-04-16T07:46:16.418Z,78.58
2023-04-16T07:48:43.220Z,78.39
2023-04-16T07:51:09.858Z,79.40
2023-04-16T07:53:36.540Z,78.74
2023-04-16T07:56:03.104Z,77.75
2023-04-16T07:58:29.708Z,76.15
2023-04-16T08:00:56.578Z,76.87
2023-04-16T08:03:23.686Z,78.17
2023-04-16T08:05:50.381Z,76.17
2023-04-16T08:08:16.964Z,76.46
2023-04-16T08:10:43.562Z,76.54
2023-04-16T08:13:10.468Z,77.61
2023-04-16T08:15:37.336Z,77.09
2023-04-16T08:18:05.894Z,76.44
2023-04-16T08:20:33.007Z,75.02
2023-04-16T08:22:59.540Z,74.99
2023-04-16T08:25:26.146Z,77.10
2023-04-16T08:27:52.727Z,75.59
2023-04-16T08:30:19.537Z,74.92
2023-04-16T08:32:48.683Z,77.03
2023-04-16T08:35:16.674Z,76.15
2023-04-16T08:37:43.223Z,76.05
2023-04-16T08:40:10.457Z,76.21
2023-04-16T08:42:45.952Z,76.64
2023-04-16T08:45:16.743Z,76.47
2023-04-16T08:47:51.040Z,75.84
2023-04-16T08:50:24.014Z,76.77
2023-04-16T08:52:52.805Z,74.57
2023-04-16T08:55:25.423Z,76.36
2023-04-16T08:57:58.417Z,76.66
2023-04-16T09:00:25.421Z,76.88
2023-04-16T09:02:53.465Z,76.48
2023-04-16T09:05:22.851Z,76.30
2023-04-16T09:07:49.630Z,76.13
2023-04-16T09:10:16.935Z,75.09
2023-04-16T09:12:44.944Z,75.62
2023-04-16T09:15:13.029Z,74.63
2023-04-16T09:17:40.240Z,73.46
2023-04-16T09:20:12.454Z,73.09
2023-04-16T09:22:42.427Z,72.80
2023-04-16T09:25:11.018Z,73.61
2023-04-16T09:27:37.759Z,73.71
2023-04-16T09:30:27.137Z,70.89
2023-04-16T09:33:16.452Z,69.98
2023-04-16T09:35:47.713Z,67.99
2023-04-16T09:38:14.611Z,69.38
2023-04-16T09:40:41.399Z,70.31
2023-04-16T09:43:16.425Z,69.30
2023-04-16T09:45:51.358Z,69.24
2023-04-16T09:48:34.053Z,69.04
2023-04-16T09:51:01.278Z,65.98
2023-04-16T09:53:30.318Z,67.62
2023-04-16T09:56:01.203Z,64.24
2023-04-16T09:58:29.076Z,63.31
2023-04-16T10:01:01.928Z,65.16
2023-04-16T10:03:32.442Z,65.06
2023-04-16T10:06:15.145Z,65.09
2023-04-16T10:08:50.748Z,62.96
2023-04-16T10:11:18.470Z,63.56
2023-04-16T10:13:45.490Z,65.65
2023-04-16T10:16:12.744Z,61.81
2023-04-16T10:18:42.237Z,62.92
2023-04-16T10:21:12.633Z,61.54
2023-04-16T10:23:40.259Z,60.45
2023-04-16T10:26:07.003Z,63.54
2023-04-16T10:28:35.411Z,62.08
2023-04-16T10:31:04.075Z,62.00
2023-04-16T10:33:33.421Z,61.81
2023-04-16T10:36:17.561Z,61.16
2023-04-16T10:38:49.972Z,59.41
2023-04-16T10:41:17.071Z,59.80
2023-04-16T10:43:45.682Z,58.74
2023-04-16T10:46:31.251Z,58.20
2023-04-16T10:49:02.602Z,60.99
2023-04-16T10:51:31.473Z,60.96
2023-04-16T10:54:03.980Z,60.68
2023-04-16T10:56:35.990Z,60.41
2023-04-16T10:59:07.369Z,60.63
2023-04-16T11:01:42.020Z,60.26
2023-04-16T11:04:21.240Z,57.48
2023-04-16T11:07:09.428Z,58.04
2023-04-16T11:09:54.226Z,55.76
2023-04-16T11:12:20.838Z,56.35
2023-04-16T11:14:49.648Z,56.72
2023-04-16T11:17:16.564Z,56.38
2023-04-16T11:19:43.738Z,54.80
2023-04-16T11:22:13.294Z,55.18
2023-04-16T11:24:40.964Z,57.41
2023-04-16T11:27:08.500Z,57.17
2023-04-16T11:29:35.860Z,56.50
2023-04-16T11:32:02.527Z,54.99
2023-04-16T11:34:29.420Z,53.47
2023-04-16T11:36:56.070Z,52.54
2023-04-16T11:39:23.119Z,55.51
2023-04-16T11:41:55.932Z,54.58
2023-04-16T11:44:27.972Z,52.20
2023-04-16T11:46:54.820Z,51.82
2023-04-16T11:49:30.742Z,53.29
2023-04-16T11:51:57.740Z,53.71
2023-04-16T11:54:26.868Z,54.25
2023-04-16T11:56:53.704Z,55.32
2023-04-16T11:59:23.192Z,55.61
2023-04-16T12:01:52.666Z,55.45
2023-04-16T12:04:21.126Z,56.43
2023-04-16T12:07:12.157Z,58.30
2023-04-16T12:09:41.479Z,57.64
2023-04-16T12:12:30.417Z,58.91
2023-04-16T12:14:59.682Z,58.87
2023-04-16T12:17:26.931Z,60.45
2023-04-16T12:19:58.878Z,56.34
2023-04-16T12:22:29.684Z,57.32
2023-04-16T12:24:58.874Z,56.11
2023-04-16T12:27:28.627Z,55.31
2023-04-16T12:30:08.057Z,55.75
2023-04-16T12:32:34.763Z,54.48
2023-04-16T12:35:01.902Z,53.50
2023-04-16T12:37:28.625Z,50.16
2023-04-16T12:39:55.239Z,50.97
2023-04-16T12:42:21.906Z,49.87
2023-04-16T12:44:48.826Z,48.79
2023-04-16T12:47:15.644Z,50.80
2023-04-16T12:49:42.339Z,51.16
2023-04-16T12:52:09.347Z,49.12
2023-04-16T12:54:36.006Z,48.37
2023-04-16T12:57:02.634Z,49.28
2023-04-16T12:59:29.254Z,48.01
2023-04-16T13:01:56.002Z,51.47
2023-04-16T13:04:25.534Z,51.08
2023-04-16T13:06:52.447Z,50.75
2023-04-16T13:09:20.233Z,53.56
2023-04-16T13:11:47.289Z,55.60
2023-04-16T13:14:13.898Z,53.64
2023-04-16T13:16:40.607Z,57.07
2023-04-16T13:19:07.215Z,57.95
2023-04-16T13:21:34.483Z,58.92
2023-04-16T13:24:01.086Z,59.43
2023-04-16T13:26:27.906Z,60.15
2023-04-16T13:28:54.590Z,59.36
2023-04-16T13:31:22.255Z,60.25
2023-04-16T13:33:48.987Z,60.33
2023-04-16T13:36:15.986Z,62.19
2023-04-16T13:38:42.560Z,62.12
2023-04-16T13:41:09.173Z,61.85
2023-04-16T14:06:02.819Z,64.06
2023-04-16T14:08:29.777Z,64.16
2023-04-16T14:10:57.689Z,65.70
2023-04-16T14:13:24.935Z,65.58
2023-04-16T14:15:54.109Z,64.51
2023-04-16T14:18:20.742Z,64.82
2023-04-16T14:20:47.670Z,65.19
2023-04-16T14:23:14.387Z,64.65
2023-04-16T14:25:41.038Z,64.58
2023-04-16T14:28:08.899Z,66.18
2023-04-16T14:30:35.576Z,65.44
2023-04-16T14:33:04.912Z,66.04
2023-04-16T14:35:32.694Z,69.81
2023-04-16T14:37:59.488Z,72.34
2023-04-16T14:40:26.396Z,72.83
2023-04-16T14:42:53.042Z,73.51
2023-04-16T14:45:19.677Z,75.37
2023-04-16T14:47:47.750Z,76.12
2023-04-16T14:50:15.772Z,77.84
2023-04-16T14:52:42.574Z,78.74
2023-04-16T14:55:09.221Z,78.36
2023-04-16T14:57:35.870Z,78.28
2023-04-16T15:00:07.454Z,79.63
2023-04-16T15:02:35.180Z,80.60
2023-04-16T15:05:02.128Z,80.29
2023-04-16T15:07:28.763Z,77.67
2023-04-16T15:09:55.765Z,76.67
2023-04-16T15:12:22.590Z,76.40
2023-04-16T15:14:49.606Z,76.04
2023-04-16T15:17:16.223Z,75.69
2023-04-16T15:19:42.926Z,75.90
2023-04-16T15:22:09.578Z,75.89
2023-04-16T15:24:36.421Z,75.83
2023-04-16T15:27:03.084Z,77.51
2023-04-16T15:29:29.710Z,79.56
2023-04-16T15:31:56.340Z,79.65
2023-04-16T15:34:22.969Z,81.03
2023-04-16T15:36:50.040Z,81.42
2023-04-16T15:39:16.847Z,82.37
2023-04-16T15:41:59.229Z,82.05
2023-04-16T15:44:27.050Z,81.33
2023-04-16T15:46:53.650Z,80.82
2023-04-16T15:49:20.213Z,79.90
2023-04-16T15:51:46.871Z,80.18
2023-04-16T15:54:13.428Z,80.01
2023-04-16T15:56:40.174Z,79.96
2023-04-16T15:59:06.782Z,78.90
2023-04-16T16:01:33.753Z,78.96
2023-04-16T16:04:07.923Z,77.85
2023-04-16T16:06:35.025Z,77.87
2023-04-16T16:09:01.744Z,77.71
2023-04-16T16:11:28.525Z,78.18
2023-04-16T16:13:55.242Z,78.08
2023-04-16T16:16:21.994Z,78.46
2023-04-16T16:18:48.768Z,78.43
2023-04-16T16:21:15.606Z,78.75
2023-04-16T16:23:42.157Z,79.52
2023-04-16T16:26:09.202Z,79.20
2023-04-16T16:28:38.640Z,79.91
2023-04-16T16:31:05.821Z,79.34
2023-04-16T16:33:33.175Z,79.93
2023-04-16T16:35:59.788Z,80.26
2023-04-16T16:38:27.027Z,81.11
2023-04-16T16:40:53.595Z,81.55
2023-04-16T16:43:20.396Z,81.80
2023-04-16T16:45:47.200Z,82.25
2023-04-16T16:48:13.919Z,82.62
2023-04-16T16:50:40.571Z,82.05
2023-04-16T16:53:07.448Z,82.92
2023-04-16T16:55:35.500Z,82.80
2023-04-16T16:58:02.258Z,82.93
2023-04-16T17:00:29.006Z,81.67
2023-04-16T17:02:55.818Z,81.72
2023-04-16T17:05:22.477Z,81.42
2023-04-16T17:07:49.103Z,80.85
2023-04-16T17:10:21.667Z,80.69
2023-04-16T17:12:49.402Z,81.33
2023-04-16T17:15:18.493Z,81.91
2023-04-16T17:17:46.380Z,82.34
2023-04-16T17:20:13.030Z,81.96
2023-04-16T17:22:40.473Z,82.11
2023-04-16T17:25:08.195Z,82.26
2023-04-16T17:27:35.305Z,82.33
2023-04-16T17:30:03.052Z,83.01
2023-04-16T17:32:32.508Z,83.11
2023-04-16T17:35:00.409Z,83.27
2023-04-16T17:37:28.580Z,83.92
2023-04-16T17:39:55.460Z,84.54
2023-04-16T17:42:22.084Z,84.98
2023-04-16T17:44:48.679Z,84.89
2023-04-16T17:47:16.517Z,84.40
2023-04-16T17:49:44.264Z,84.78
2023-04-16T17:52:10.877Z,84.80
2023-04-16T17:54:37.414Z,85.26
2023-04-16T17:57:04.760Z,85.26
2023-04-16T17:59:31.447Z,85.22
2023-04-16T18:01:58.188Z,85.18
2023-04-16T18:04:25.080Z,85.61
2023-04-16T18:06:51.721Z,85.70
2023-04-16T18:09:19.433Z,85.80
2023-04-16T18:11:46.063Z,85.87
2023-04-16T18:14:16.609Z,85.98
2023-04-16T18:16:43.266Z,86.27
2023-04-16T18:19:09.887Z,86.20
2023-04-16T18:21:36.470Z,86.85
2023-04-16T18:24:03.486Z,86.84
2023-04-16T18:26:30.206Z,86.63
2023-04-16T18:28:56.991Z,86.59
2023-04-16T18:31:23.701Z,86.61
2023-04-16T18:33:57.470Z,87.19
2023-04-16T18:36:26.488Z,87.56
2023-04-16T18:39:01.680Z,88.20
2023-04-16T18:41:29.657Z,88.49
2023-04-16T18:43:56.424Z,88.39
2023-04-16T18:46:23.097Z,88.38
2023-04-16T18:48:49.840Z,88.60
2023-04-16T18:51:16.823Z,88.91
2023-04-16T18:53:45.478Z,89.01
2023-04-16T18:56:12.464Z,89.20
2023-04-16T18:58:39.737Z,89.16
2023-04-16T19:01:11.014Z,89.10
2023-04-16T19:03:38.205Z,89.06
2023-04-16T19:06:05.872Z,89.20
2023-04-16T19:08:32.437Z,89.19
2023-04-16T19:10:59.015Z,89.27
2023-04-16T19:13:25.546Z,89.18
2023-04-16T19:15:56.983Z,89.12
2023-04-16T19:18:23.787Z,89.39
2023-04-16T19:20:50.598Z,89.29
2023-04-16T19:23:17.354Z,89.42
2023-04-16T19:25:43.942Z,89.35
2023-04-16T19:28:10.486Z,89.04
2023-04-16T19:30:37.179Z,89.14
2023-04-16T19:33:03.831Z,89.27
2023-04-16T19:35:30.630Z,89.66
2023-04-16T19:37:58.026Z,89.69
2023-04-16T19:40:24.663Z,90.14
2023-04-16T19:42:51.284Z,90.39
2023-04-16T19:45:18.346Z,90.35
2023-04-16T19:47:45.031Z,90.35
2023-04-16T19:50:11.802Z,90.05
2023-04-16T19:52:39.102Z,89.46
2023-04-16T19:55:06.922Z,89.69
2023-04-16T19:57:33.613Z,89.83
2023-04-16T20:00:00.357Z,89.66
2023-04-16T20:02:27.257Z,89.80
2023-04-16T20:04:54.046Z,90.25
2023-04-16T20:07:20.707Z,89.75
2023-04-16T20:09:47.522Z,89.48
2023-04-16T20:12:14.419Z,89.95
2023-04-16T20:14:41.867Z,89.94
2023-04-16T20:17:10.043Z,89.77
2023-04-16T20:19:40.776Z,90.00
2023-04-16T20:22:07.359Z,90.02
2023-04-16T20:24:34.297Z,89.71
2023-04-16T20:27:01.743Z,89.49
2023-04-16T20:29:28.372Z,89.83
2023-04-16T20:31:55.022Z,89.87
2023-04-16T20:34:21.568Z,89.96
2023-04-16T20:36:48.138Z,89.90
2023-04-16T20:39:20.116Z,90.23
2023-04-16T20:41:56.359Z,90.36
2023-04-16T20:44:26.317Z,90.28
2023-04-16T20:46:55.506Z,89.97
2023-04-16T20:49:22.128Z,90.19
2023-04-16T20:51:48.815Z,90.56
2023-04-16T20:54:15.639Z,90.71
2023-04-16T20:56:43.288Z,90.85
2023-04-16T20:59:10.676Z,90.71
2023-04-16T21:01:37.477Z,90.28
2023-04-16T21:04:04.443Z,90.51
2023-04-16T21:06:32.918Z,90.25
2023-04-16T21:08:59.564Z,90.46
2023-04-16T21:11:26.237Z,90.26
2023-04-16T21:13:52.805Z,90.30
2023-04-16T21:16:19.457Z,90.58
2023-04-16T21:18:46.144Z,90.75
2023-04-16T21:21:12.726Z,90.75
2023-04-16T21:23:39.365Z,90.80
2023-04-16T21:26:06.083Z,90.73
2023-04-16T21:28:32.655Z,90.88
2023-04-16T21:30:59.477Z,91.20
2023-04-16T21:33:26.112Z,91.13
2023-04-16T21:35:53.613Z,91.20
2023-04-16T21:38:21.201Z,91.73
2023-04-16T21:40:54.063Z,91.76
2023-04-16T21:43:20.826Z,91.47
2023-04-16T21:45:47.594Z,91.07
2023-04-16T21:48:14.428Z,91.35
2023-04-16T21:50:40.956Z,91.45
2023-04-16T21:53:07.559Z,91.23
2023-04-16T21:55:34.751Z,91.30
2023-04-16T21:58:04.373Z,91.04
2023-04-16T22:00:30.938Z,91.20
2023-04-16T22:03:00.032Z,91.21
2023-04-16T22:05:26.852Z,90.87
2023-04-16T22:07:53.422Z,90.85
2023-04-16T22:10:20.313Z,90.83
2023-04-16T22:12:46.882Z,90.79
2023-04-16T22:15:13.907Z,90.62
2023-04-16T22:17:41.026Z,90.91
2023-04-16T22:20:14.514Z,90.93
2023-04-16T22:22:42.161Z,90.77
2023-04-16T22:25:09.746Z,90.29
2023-04-16T22:27:36.774Z,90.64
2023-04-16T22:30:04.062Z,90.89
2023-04-16T22:32:30.939Z,90.45
2023-04-16T22:34:57.665Z,90.57
2023-04-16T22:37:24.604Z,90.95
2023-04-16T22:39:51.258Z,90.98
2023-04-16T22:42:17.817Z,91.20
2023-04-16T22:44:44.389Z,90.93
2023-04-16T22:47:10.998Z,90.98
2023-04-16T22:49:37.600Z,91.34
2023-04-16T22:52:04.318Z,91.43
2023-04-16T22:54:31.885Z,91.46
2023-04-16T22:56:58.715Z,91.35
2023-04-16T22:59:25.865Z,91.08
2023-04-16T23:01:52.970Z,91.16
2023-04-16T23:04:19.817Z,90.84
2023-04-16T23:06:46.739Z,90.79
2023-04-16T23:09:13.523Z,90.56
2023-04-16T23:11:40.562Z,90.83
2023-04-16T23:14:08.245Z,90.96
2023-04-16T23:16:34.975Z,90.82
2023-04-16T23:19:01.638Z,91.14
2023-04-16T23:21:28.213Z,91.29
2023-04-16T23:23:55.664Z,91.57
2023-04-16T23:26:22.233Z,91.50
2023-04-16T23:28:48.784Z,91.51
2023-04-16T23:31:15.466Z,91.33
2023-04-16T23:33:42.103Z,91.81
2023-04-16T23:36:09.202Z,91.64
2023-04-16T23:38:35.795Z,91.27
2023-04-16T23:41:02.379Z,90.74
2023-04-16T23:43:28.922Z,90.89
2023-04-16T23:45:55.681Z,90.59
2023-04-16T23:48:22.375Z,90.70
2023-04-16T23:50:48.958Z,90.63
2023-04-16T23:53:15.676Z,90.79
2023-04-16T23:55:42.216Z,90.78
2023-04-16T23:58:08.740Z,90.76
